createdAt,value
2023-03-16T00:00:55.489Z,7.37
2023-03-16T00:03:31.049Z,7.34
2023-03-16T00:05:58.715Z,7.23
2023-03-16T00:08:27.196Z,7.29
2023-03-16T00:10:54.399Z,7.31
2023-03-16T00:13:25.574Z,7.31
2023-03-16T00:15:53.853Z,7.26
2023-03-16T00:18:22.444Z,7.24
2023-03-16T00:20:53.267Z,7.19
2023-03-16T00:23:20.623Z,7.01
2023-03-16T00:25:48.223Z,7.04
2023-03-16T00:28:18.124Z,6.94
2023-03-16T00:30:47.586Z,6.92
2023-03-16T00:33:15.121Z,6.95
2023-03-16T00:35:50.498Z,6.93
2023-03-16T00:38:20.017Z,6.70
2023-03-16T00:40:48.591Z,6.72
2023-03-16T00:43:19.017Z,6.79
2023-03-16T00:45:47.124Z,6.67
2023-03-16T00:48:14.733Z,6.80
2023-03-16T00:50:43.417Z,6.69
2023-03-16T00:53:11.133Z,6.73
2023-03-16T00:55:38.801Z,6.77
2023-03-16T00:58:08.816Z,6.77
2023-03-16T01:00:36.805Z,6.78
2023-03-16T01:03:04.158Z,6.67
2023-03-16T01:05:34.043Z,6.57
2023-03-16T01:08:04.882Z,6.68
2023-03-16T01:10:32.674Z,6.72
2023-03-16T01:13:01.263Z,6.71
2023-03-16T01:15:36.991Z,6.82
2023-03-16T01:18:05.281Z,6.64
2023-03-16T01:20:33.863Z,6.60
2023-03-16T01:23:02.587Z,6.61
2023-03-16T01:25:29.912Z,6.73
2023-03-16T01:27:59.646Z,6.67
2023-03-16T01:30:27.324Z,6.74
2023-03-16T01:32:54.777Z,6.73
2023-03-16T01:35:22.016Z,6.64
2023-03-16T01:37:50.367Z,6.62
2023-03-16T01:40:19.106Z,6.58
2023-03-16T01:42:50.695Z,6.58
2023-03-16T01:45:39.262Z,6.64
2023-03-16T01:48:06.354Z,6.69
2023-03-16T01:50:33.903Z,6.67
2023-03-16T01:53:09.530Z,6.66
2023-03-16T01:55:37.076Z,6.54
2023-03-16T01:58:04.421Z,6.63
2023-03-16T02:00:33.506Z,6.60
2023-03-16T02:03:05.206Z,6.57
2023-03-16T02:05:34.072Z,6.55
2023-03-16T02:08:03.867Z,6.52
2023-03-16T02:10:31.284Z,6.53
2023-03-16T02:13:18.856Z,6.53
2023-03-16T02:15:45.942Z,6.57
2023-03-16T02:18:13.668Z,6.60
2023-03-16T02:20:49.112Z,6.47
2023-03-16T02:23:19.832Z,6.43
2023-03-16T02:25:49.805Z,6.45
2023-03-16T02:28:26.533Z,6.52
2023-03-16T02:30:54.127Z,6.40
2023-03-16T02:33:21.688Z,6.38
2023-03-16T02:35:49.137Z,6.35
2023-03-16T02:38:23.771Z,6.48
2023-03-16T02:41:17.868Z,6.23
2023-03-16T02:43:49.434Z,6.26
2023-03-16T02:46:18.222Z,6.20
2023-03-16T02:48:49.491Z,6.11
2023-03-16T02:51:16.898Z,6.02
2023-03-16T02:53:44.724Z,6.08
2023-03-16T02:56:11.831Z,6.18
2023-03-16T02:58:51.568Z,6.26
2023-03-16T03:01:19.076Z,6.37
2023-03-16T03:03:46.511Z,6.11
2023-03-16T03:06:14.059Z,6.17
2023-03-16T03:08:41.364Z,6.28
2023-03-16T03:11:09.903Z,6.02
2023-03-16T03:13:45.073Z,6.05
2023-03-16T03:16:12.341Z,6.04
2023-03-16T03:18:39.477Z,6.34
2023-03-16T03:21:10.174Z,6.39
2023-03-16T03:23:37.638Z,6.34
2023-03-16T03:26:05.051Z,6.15
2023-03-16T03:28:37.400Z,6.08
2023-03-16T03:31:05.130Z,6.11
2023-03-16T03:33:34.789Z,6.12
2023-03-16T03:36:03.555Z,6.25
2023-03-16T03:38:31.719Z,6.36
2023-03-16T03:41:00.693Z,6.37
2023-03-16T03:43:27.914Z,6.50
2023-03-16T03:45:59.062Z,6.51
2023-03-16T03:48:26.588Z,6.46
2023-03-16T03:50:54.228Z,6.43
2023-03-16T03:53:21.683Z,6.26
2023-03-16T03:55:51.573Z,6.07
2023-03-16T03:58:19.877Z,6.04
2023-03-16T04:00:47.332Z,6.05
2023-03-16T04:03:15.397Z,6.18
2023-03-16T04:05:43.917Z,6.18
2023-03-16T04:08:12.016Z,5.99
2023-03-16T04:10:39.447Z,6.19
2023-03-16T04:13:13.660Z,6.23
2023-03-16T04:15:41.680Z,6.25
2023-03-16T04:18:09.456Z,5.98
2023-03-16T04:20:38.684Z,5.91
2023-03-16T04:23:07.238Z,5.97
2023-03-16T04:25:34.995Z,5.99
2023-03-16T04:28:02.434Z,6.06
2023-03-16T04:30:33.226Z,6.17
2023-03-16T04:33:03.339Z,6.31
2023-03-16T04:35:32.931Z,6.41
2023-03-16T04:38:00.341Z,6.43
2023-03-16T04:40:28.017Z,6.42
2023-03-16T04:42:56.035Z,6.23
2023-03-16T04:45:26.932Z,6.36
2023-03-16T04:47:54.345Z,6.58
2023-03-16T04:50:22.847Z,6.47
2023-03-16T04:52:50.652Z,6.43
2023-03-16T04:55:18.475Z,6.33
2023-03-16T04:57:46.150Z,6.38
2023-03-16T05:00:19.345Z,6.56
2023-03-16T05:02:47.824Z,6.52
2023-03-16T05:05:15.512Z,6.59
2023-03-16T05:07:43.218Z,6.45
2023-03-16T05:10:13.980Z,6.41
2023-03-16T05:12:41.359Z,6.58
2023-03-16T05:15:10.647Z,6.65
2023-03-16T05:17:40.221Z,6.67
2023-03-16T05:20:09.040Z,6.27
2023-03-16T05:22:36.695Z,6.49
2023-03-16T05:25:05.712Z,6.15
2023-03-16T05:27:35.620Z,6.55
2023-03-16T05:30:03.756Z,6.56
2023-03-16T05:32:32.272Z,6.72
2023-03-16T05:35:03.461Z,6.70
2023-03-16T05:37:32.404Z,6.72
2023-03-16T05:40:05.460Z,6.59
2023-03-16T05:42:32.996Z,6.74
2023-03-16T05:45:00.998Z,6.85
2023-03-16T05:47:28.773Z,6.72
2023-03-16T05:49:59.715Z,6.80
2023-03-16T05:52:28.394Z,6.49
2023-03-16T05:55:01.702Z,6.46
2023-03-16T05:57:29.566Z,6.40
2023-03-16T05:59:58.028Z,6.41
2023-03-16T06:02:28.096Z,6.53
2023-03-16T06:04:55.159Z,6.56
2023-03-16T06:07:23.419Z,6.84
2023-03-16T06:09:53.222Z,6.68
2023-03-16T06:12:22.215Z,6.93
2023-03-16T06:14:53.129Z,7.19
2023-03-16T06:17:24.071Z,7.02
2023-03-16T06:19:55.122Z,7.25
2023-03-16T06:22:22.217Z,7.46
2023-03-16T06:24:55.946Z,7.16
2023-03-16T06:27:26.768Z,7.54
2023-03-16T06:29:54.418Z,7.83
2023-03-16T06:32:23.046Z,7.90
2023-03-16T06:34:51.835Z,7.89
2023-03-16T06:37:20.310Z,8.31
2023-03-16T06:39:48.921Z,8.33
2023-03-16T06:42:16.303Z,8.46
2023-03-16T06:44:44.019Z,8.32
2023-03-16T06:47:12.147Z,8.57
2023-03-16T06:49:42.009Z,8.42
2023-03-16T06:52:14.953Z,8.81
2023-03-16T06:54:43.652Z,8.57
2023-03-16T06:57:10.809Z,8.70
2023-03-16T06:59:40.161Z,9.12
2023-03-16T07:02:07.474Z,9.35
2023-03-16T07:04:36.508Z,9.06
2023-03-16T07:07:08.981Z,9.12
2023-03-16T07:09:39.113Z,9.29
2023-03-16T07:12:07.886Z,8.91
2023-03-16T07:14:35.531Z,9.10
2023-03-16T07:17:02.958Z,9.15
2023-03-16T07:19:30.348Z,8.96
2023-03-16T07:22:03.855Z,9.53
2023-03-16T07:24:31.316Z,9.49
2023-03-16T07:27:02.411Z,9.59
2023-03-16T07:29:30.065Z,9.87
2023-03-16T07:31:58.877Z,10.00
2023-03-16T07:34:26.705Z,9.90
2023-03-16T07:36:54.430Z,10.21
2023-03-16T07:39:22.406Z,10.33
2023-03-16T07:41:50.364Z,10.21
2023-03-16T07:44:17.637Z,10.19
2023-03-16T07:46:47.338Z,10.07
2023-03-16T07:49:17.143Z,10.30
2023-03-16T07:51:44.850Z,10.29
2023-03-16T07:54:12.356Z,10.40
2023-03-16T07:56:49.625Z,10.43
2023-03-16T07:59:20.418Z,10.39
2023-03-16T08:01:47.777Z,10.44
2023-03-16T08:04:16.610Z,10.40
2023-03-16T08:06:43.877Z,10.38
2023-03-16T08:09:13.136Z,10.88
2023-03-16T08:11:41.915Z,10.55
2023-03-16T08:14:09.423Z,11.00
2023-03-16T08:16:37.825Z,10.70
2023-03-16T08:19:13.360Z,11.01
2023-03-16T08:21:59.961Z,11.04
2023-03-16T08:24:28.667Z,11.29
2023-03-16T08:26:57.685Z,11.11
2023-03-16T08:29:26.037Z,11.80
2023-03-16T08:31:57.845Z,11.53
2023-03-16T08:34:25.483Z,10.81
2023-03-16T08:36:52.922Z,10.66
2023-03-16T08:39:20.659Z,11.02
2023-03-16T08:41:49.630Z,11.64
2023-03-16T08:44:18.113Z,11.84
2023-03-16T08:46:47.771Z,12.40
2023-03-16T08:49:15.282Z,11.69
2023-03-16T08:51:45.042Z,11.62
2023-03-16T08:54:12.452Z,12.12
2023-03-16T08:56:40.877Z,12.40
2023-03-16T08:59:16.786Z,11.90
2023-03-16T09:01:50.843Z,11.93
2023-03-16T09:04:32.851Z,11.91
2023-03-16T09:07:09.684Z,12.00
2023-03-16T09:09:36.950Z,12.24
2023-03-16T09:12:04.468Z,12.14
2023-03-16T09:14:32.003Z,12.20
2023-03-16T09:17:00.015Z,12.34
2023-03-16T09:19:40.777Z,13.18
2023-03-16T09:22:17.783Z,12.17
2023-03-16T09:24:46.168Z,12.40
2023-03-16T09:27:13.484Z,12.85
2023-03-16T09:29:44.060Z,13.14
2023-03-16T09:32:11.628Z,13.08
2023-03-16T09:34:39.495Z,13.27
2023-03-16T09:37:09.038Z,14.07
2023-03-16T09:39:37.841Z,13.67
2023-03-16T09:42:16.050Z,14.19
2023-03-16T09:45:02.126Z,13.72
2023-03-16T09:47:37.356Z,14.44
2023-03-16T09:50:07.457Z,14.86
2023-03-16T09:52:56.013Z,14.38
2023-03-16T09:55:31.970Z,13.32
2023-03-16T09:58:00.201Z,13.82
2023-03-16T10:00:48.871Z,13.96
2023-03-16T10:03:31.991Z,14.12
2023-03-16T10:06:04.010Z,14.12
2023-03-16T10:08:38.141Z,13.75
2023-03-16T10:11:15.241Z,13.90
2023-03-16T10:13:48.953Z,14.37
2023-03-16T10:16:18.977Z,14.39
2023-03-16T10:18:47.852Z,14.91
2023-03-16T10:21:25.724Z,14.76
2023-03-16T10:23:53.011Z,14.60
2023-03-16T10:26:49.045Z,15.31
2023-03-16T10:29:17.693Z,14.89
2023-03-16T10:31:50.657Z,15.22
2023-03-16T10:34:19.552Z,14.56
2023-03-16T10:36:48.374Z,14.31
2023-03-16T10:39:17.770Z,14.07
2023-03-16T10:41:46.274Z,15.23
2023-03-16T10:44:23.050Z,14.91
2023-03-16T10:46:54.336Z,14.34
2023-03-16T10:49:23.034Z,14.88
2023-03-16T10:51:51.126Z,14.50
2023-03-16T10:54:28.457Z,14.84
2023-03-16T10:56:58.088Z,15.18
2023-03-16T10:59:28.117Z,15.43
2023-03-16T11:01:59.080Z,15.42
2023-03-16T11:04:27.233Z,15.19
2023-03-16T11:06:58.306Z,14.70
2023-03-16T11:09:35.676Z,14.39
2023-03-16T11:12:16.513Z,14.85
2023-03-16T11:14:45.325Z,14.62
2023-03-16T11:17:20.850Z,14.76
2023-03-16T11:19:54.964Z,15.00
2023-03-16T11:22:26.052Z,15.14
2023-03-16T11:25:06.959Z,15.21
2023-03-16T11:27:39.964Z,15.14
2023-03-16T11:30:21.747Z,16.04
2023-03-16T11:32:54.504Z,15.94
